Time;durP1;ratioP1;P1;durP2;ratioP2;P2;SDS_P1;SDS_P2;PMS_P1;PMS_P2;Temp;Humidity;BMP_temperature;BMP_pressure;BME280_temperature;BME280_humidity;BME280_pressure;Samples;Min_cycle;Max_cycle;Signal;HPM_P1;HPM_P2
2022/04/04 00:00:08;;;;;;;5.03;4.43;;;8.90;91.00;;;;;;4928518;29;20532;-74
2022/04/04 00:02:34;;;;;;;5.63;4.77;;;8.90;91.00;;;;;;4933564;29;20412;-75
2022/04/04 00:05:01;;;;;;;5.63;4.67;;;8.80;91.00;;;;;;4947487;29;20481;-75
2022/04/04 00:07:27;;;;;;;4.40;3.73;;;8.90;91.00;;;;;;4952960;28;20446;-75
2022/04/04 00:09:53;;;;;;;5.70;4.23;;;8.80;91.00;;;;;;4952083;29;20446;-74
2022/04/04 00:12:22;;;;;;;7.43;4.83;;;8.80;90.90;;;;;;4951958;29;20467;-75
2022/04/04 00:14:50;;;;;;;4.93;4.43;;;8.80;91.00;;;;;;4952147;29;20427;-75
2022/04/04 00:17:16;;;;;;;6.10;4.90;;;8.80;91.00;;;;;;4968386;28;20467;-75
2022/04/04 00:19:42;;;;;;;4.40;4.00;;;8.80;90.90;;;;;;4952168;29;20494;-75
2022/04/04 00:22:13;;;;;;;4.53;4.10;;;8.80;90.90;;;;;;4953533;28;20901;-75
2022/04/04 00:24:41;;;;;;;5.03;3.83;;;8.80;90.90;;;;;;4953322;28;20470;-75
2022/04/04 00:27:07;;;;;;;7.23;4.17;;;8.80;90.90;;;;;;4953394;28;20474;-74
2022/04/04 00:29:33;;;;;;;4.67;3.90;;;8.80;90.90;;;;;;4951943;28;20457;-75
2022/04/04 00:32:02;;;;;;;4.80;3.50;;;8.80;90.90;;;;;;4952280;29;20877;-75
2022/04/04 00:34:28;;;;;;;4.73;3.63;;;8.80;90.90;;;;;;4953347;28;20936;-75
2022/04/04 00:36:56;;;;;;;5.10;3.90;;;8.80;91.00;;;;;;4953280;28;20498;-75
2022/04/04 00:39:23;;;;;;;5.23;4.03;;;8.80;91.00;;;;;;4953060;29;20455;-75
2022/04/04 00:41:51;;;;;;;4.73;4.20;;;8.70;90.90;;;;;;4952779;29;20999;-75
2022/04/04 00:44:20;;;;;;;6.10;4.10;;;8.70;90.90;;;;;;4952567;29;20395;-75
2022/04/04 00:46:48;;;;;;;4.50;3.57;;;8.70;90.90;;;;;;4952094;29;20441;-75
2022/04/04 00:49:14;;;;;;;4.27;3.87;;;8.70;90.90;;;;;;4952399;28;20482;-75
2022/04/04 00:51:40;;;;;;;5.47;4.03;;;8.70;91.00;;;;;;4952137;29;20456;-75
2022/04/04 00:54:08;;;;;;;4.63;4.00;;;8.70;91.00;;;;;;4952810;28;20568;-75
2022/04/04 00:56:38;;;;;;;4.27;3.87;;;8.70;91.00;;;;;;4952101;29;20477;-75
2022/04/04 00:59:06;;;;;;;4.83;3.90;;;8.70;91.00;;;;;;4952924;28;21010;-75
2022/04/04 01:01:33;;;;;;;4.73;4.20;;;8.70;91.00;;;;;;4952127;29;20813;-75
2022/04/04 01:04:03;;;;;;;5.93;4.03;;;8.70;91.00;;;;;;4951393;29;20415;-75
2022/04/04 01:06:31;;;;;;;4.10;3.70;;;8.70;91.00;;;;;;4951867;29;20490;-75
2022/04/04 01:08:57;;;;;;;6.43;3.67;;;8.70;91.00;;;;;;4951057;28;20429;-75
2022/04/04 01:11:23;;;;;;;5.03;4.20;;;8.60;91.00;;;;;;4949147;29;20986;-75
2022/04/04 01:13:50;;;;;;;4.30;3.77;;;8.60;91.00;;;;;;4953042;29;20430;-74
2022/04/04 01:16:21;;;;;;;4.10;3.60;;;8.60;91.00;;;;;;4932878;29;20455;-74
2022/04/04 01:18:51;;;;;;;5.23;3.87;;;8.60;91.00;;;;;;4934179;29;20447;-75
2022/04/04 01:21:22;;;;;;;4.20;3.80;;;8.60;91.00;;;;;;4932585;29;20983;-75
2022/04/04 01:23:49;;;;;;;4.70;4.07;;;8.60;91.00;;;;;;4955689;29;20411;-75
2022/04/04 01:26:20;;;;;;;5.50;3.80;;;8.60;91.00;;;;;;4939212;29;20478;-75
2022/04/04 01:28:46;;;;;;;6.10;4.03;;;8.60;91.00;;;;;;4955083;29;20912;-75
2022/04/04 01:31:15;;;;;;;3.83;3.53;;;8.60;91.00;;;;;;4955247;29;20422;-75
2022/04/04 01:33:43;;;;;;;6.37;4.10;;;8.60;91.10;;;;;;4939256;29;20786;-75
2022/04/04 01:36:12;;;;;;;4.30;3.43;;;8.50;91.00;;;;;;4954661;29;20446;-75
2022/04/04 01:38:38;;;;;;;3.70;3.40;;;8.50;91.00;;;;;;4956457;28;20399;-75
2022/04/04 01:41:04;;;;;;;4.90;3.93;;;8.50;91.00;;;;;;4955915;29;20466;-74
2022/04/04 01:43:30;;;;;;;4.00;3.60;;;8.50;91.00;;;;;;4971334;28;20406;-75
2022/04/04 01:48:45;;;;;;;4.20;3.80;;;8.50;91.00;;;;;;4955168;29;20507;-75
2022/04/04 01:51:12;;;;;;;5.10;3.23;;;8.50;91.00;;;;;;4954521;29;20427;-74
2022/04/04 01:53:38;;;;;;;4.27;3.67;;;8.50;91.00;;;;;;4955085;29;20462;-75
2022/04/04 01:56:09;;;;;;;5.33;3.80;;;8.50;91.10;;;;;;4955765;28;20449;-75
2022/04/04 01:58:41;;;;;;;5.57;3.80;;;8.50;91.10;;;;;;4923001;29;20478;-75
2022/04/04 02:01:18;;;;;;;4.33;3.30;;;8.50;91.10;;;;;;4937982;29;20460;-75
2022/04/04 02:03:49;;;;;;;4.87;3.50;;;8.50;91.10;;;;;;4954591;28;20529;-75
2022/04/04 02:06:18;;;;;;;3.63;3.33;;;8.50;91.10;;;;;;4951291;29;20436;-75
2022/04/04 02:08:48;;;;;;;4.40;3.33;;;8.50;91.10;;;;;;4938328;29;20439;-75
2022/04/04 02:11:18;;;;;;;4.50;3.43;;;8.40;91.00;;;;;;4954374;29;20447;-75
2022/04/04 02:13:47;;;;;;;4.40;3.63;;;8.40;91.00;;;;;;4935348;29;20492;-75
2022/04/04 02:16:16;;;;;;;5.17;3.03;;;8.50;91.10;;;;;;4939134;29;20462;-74
2022/04/04 02:18:46;;;;;;;4.60;3.63;;;8.40;91.00;;;;;;4951311;29;20925;-75
2022/04/04 02:21:17;;;;;;;4.23;3.33;;;8.40;91.00;;;;;;4940177;29;20815;-75
2022/04/04 02:23:48;;;;;;;6.87;3.20;;;8.40;91.00;;;;;;4955124;28;20423;-75
2022/04/04 02:26:16;;;;;;;3.63;3.33;;;8.40;91.10;;;;;;4938525;29;20482;-75
2022/04/04 02:28:42;;;;;;;4.83;3.27;;;8.40;91.10;;;;;;4938277;29;20419;-75
2022/04/04 02:31:08;;;;;;;3.43;3.00;;;8.40;91.10;;;;;;4921408;29;20831;-74
2022/04/04 02:33:34;;;;;;;4.40;3.30;;;8.40;91.10;;;;;;4954031;29;20446;-75
2022/04/04 02:36:00;;;;;;;4.43;3.37;;;8.30;91.10;;;;;;4955167;28;20505;-74
2022/04/04 02:38:30;;;;;;;4.00;3.30;;;8.30;91.10;;;;;;4953803;29;20447;-75
2022/04/04 02:40:57;;;;;;;3.80;3.40;;;8.30;91.10;;;;;;4953946;29;20207;-75
2022/04/04 02:43:26;;;;;;;3.93;3.53;;;8.30;91.10;;;;;;4954215;29;20517;-75
2022/04/04 02:45:52;;;;;;;4.07;3.67;;;8.30;91.40;;;;;;4953869;29;20443;-75
2022/04/04 02:48:21;;;;;;;4.80;4.00;;;8.30;91.10;;;;;;4954699;28;20434;-75
2022/04/04 02:50:47;;;;;;;4.80;3.30;;;8.30;91.10;;;;;;4937244;28;20440;-74
2022/04/04 02:53:18;;;;;;;4.30;3.30;;;8.30;91.10;;;;;;4931880;29;20459;-75
2022/04/04 02:58:36;;;;;;;8.00;3.83;;;8.30;91.20;;;;;;4954724;29;20990;-75
2022/04/04 03:01:05;;;;;;;4.53;3.63;;;8.30;91.20;;;;;;4953486;29;20976;-75
2022/04/04 03:03:33;;;;;;;4.17;3.77;;;8.30;91.20;;;;;;4954244;28;20415;-75
2022/04/04 03:06:04;;;;;;;4.70;3.87;;;8.30;91.20;;;;;;4953508;29;20481;-75
2022/04/04 03:08:30;;;;;;;3.43;3.13;;;8.30;91.20;;;;;;4968693;28;20581;-75
2022/04/04 03:10:56;;;;;;;6.60;4.20;;;8.20;91.20;;;;;;4937603;29;20521;-75
2022/04/04 03:13:25;;;;;;;5.63;4.27;;;8.30;91.20;;;;;;4954227;28;20451;-74
2022/04/04 03:15:51;;;;;;;5.90;3.87;;;8.20;91.20;;;;;;4937293;29;20558;-74
2022/04/04 03:18:17;;;;;;;6.90;4.63;;;8.20;91.20;;;;;;4952920;29;20550;-75
2022/04/04 03:20:45;;;;;;;6.10;4.13;;;8.20;91.20;;;;;;4954178;29;20415;-75
2022/04/04 03:23:17;;;;;;;4.80;3.47;;;8.20;91.20;;;;;;4954126;28;20435;-75
2022/04/04 03:25:45;;;;;;;5.50;3.53;;;8.20;91.20;;;;;;4953259;29;20434;-75
2022/04/04 03:28:11;;;;;;;7.03;3.83;;;8.20;91.20;;;;;;4952907;29;20419;-74
2022/04/04 03:30:40;;;;;;;5.37;4.13;;;8.20;91.20;;;;;;4953161;29;20418;-75
2022/04/04 03:33:06;;;;;;;4.83;4.40;;;8.20;91.20;;;;;;4952675;29;20840;-75
2022/04/04 03:35:34;;;;;;;5.63;3.70;;;8.20;91.20;;;;;;4937351;29;20407;-75
2022/04/04 03:38:07;;;;;;;5.37;4.10;;;8.20;91.20;;;;;;4953873;28;20509;-75
2022/04/04 03:40:34;;;;;;;5.70;4.40;;;8.20;91.30;;;;;;4952573;29;20443;-75
2022/04/04 03:43:00;;;;;;;5.97;4.37;;;8.10;91.20;;;;;;4952727;28;20427;-75
2022/04/04 03:45:28;;;;;;;4.30;3.90;;;8.20;91.60;;;;;;4953851;28;20612;-75
2022/04/04 03:47:54;;;;;;;5.37;4.50;;;8.10;91.20;;;;;;4953070;29;20462;-75
2022/04/04 03:50:23;;;;;;;4.60;4.10;;;8.10;91.20;;;;;;4952699;29;20447;-74
2022/04/04 03:52:52;;;;;;;6.47;5.17;;;8.10;91.20;;;;;;4938567;29;20439;-74
2022/04/04 03:55:25;;;;;;;4.77;4.10;;;8.10;91.30;;;;;;4952333;29;20450;-74
2022/04/04 03:57:53;;;;;;;5.30;4.33;;;8.10;91.60;;;;;;4952862;29;20505;-75
2022/04/04 04:00:24;;;;;;;7.77;4.07;;;8.10;91.30;;;;;;4936342;29;20994;-75
2022/04/04 04:02:52;;;;;;;5.23;4.43;;;8.10;91.30;;;;;;4952477;29;20529;-75
2022/04/04 04:05:17;;;;;;;6.53;4.90;;;8.10;91.30;;;;;;4952651;29;20408;-75
2022/04/04 04:07:46;;;;;;;7.03;5.00;;;8.10;91.30;;;;;;4953193;29;20498;-74
2022/04/04 04:10:15;;;;;;;5.53;4.97;;;8.10;91.30;;;;;;4923192;29;21060;-74
2022/04/04 04:12:43;;;;;;;6.60;5.03;;;8.10;91.30;;;;;;4952523;29;20511;-75
2022/04/04 04:15:11;;;;;;;7.10;4.97;;;8.10;91.30;;;;;;4933014;29;20254;-75
2022/04/04 04:17:38;;;;;;;6.40;5.10;;;8.10;91.30;;;;;;4943076;29;21018;-75
2022/04/04 04:20:29;;;;;;;6.60;5.07;;;8.10;91.30;;;;;;4937010;29;20451;-75
2022/04/04 04:23:07;;;;;;;6.70;5.50;;;8.00;91.30;;;;;;4951682;29;20443;-75
2022/04/04 04:25:35;;;;;;;7.00;5.67;;;8.00;91.20;;;;;;4953610;28;20395;-74
2022/04/04 04:28:07;;;;;;;7.20;5.17;;;8.00;91.30;;;;;;4950873;28;20440;-74
2022/04/04 04:30:36;;;;;;;6.53;5.33;;;8.00;91.30;;;;;;4943054;29;20510;-76
2022/04/04 04:33:05;;;;;;;7.03;5.30;;;8.00;91.30;;;;;;4953480;28;20402;-73
2022/04/04 04:35:31;;;;;;;8.20;5.67;;;8.00;91.30;;;;;;4953264;28;20964;-73
2022/04/04 04:38:00;;;;;;;7.03;6.10;;;8.00;91.30;;;;;;4952427;29;20455;-74
2022/04/04 04:40:31;;;;;;;8.07;5.93;;;8.00;91.30;;;;;;4951736;29;20420;-73
2022/04/04 04:42:59;;;;;;;8.97;6.10;;;8.00;91.30;;;;;;4952143;29;20430;-73
2022/04/04 04:45:25;;;;;;;7.60;6.10;;;7.90;91.30;;;;;;4951613;29;20873;-73
2022/04/04 04:47:52;;;;;;;10.57;5.60;;;8.00;91.30;;;;;;4953284;28;20487;-72
2022/04/04 04:50:20;;;;;;;6.07;5.50;;;8.00;91.30;;;;;;4936232;29;20443;-73
2022/04/04 04:52:47;;;;;;;8.00;5.63;;;7.90;91.20;;;;;;4939016;28;20427;-73
2022/04/04 04:55:14;;;;;;;9.50;5.63;;;7.90;91.30;;;;;;4956781;29;20458;-73
2022/04/04 04:57:43;;;;;;;7.23;5.20;;;8.00;91.30;;;;;;4949081;29;20487;-73
2022/04/04 05:00:12;;;;;;;6.30;5.47;;;7.90;91.30;;;;;;4955841;29;20431;-74
2022/04/04 05:02:38;;;;;;;6.83;5.00;;;7.90;91.30;;;;;;4970636;28;20427;-73
2022/04/04 05:05:05;;;;;;;8.23;5.70;;;7.90;91.30;;;;;;4954055;28;20426;-73
2022/04/04 05:07:32;;;;;;;10.47;6.33;;;7.90;91.30;;;;;;4953948;29;20593;-73
2022/04/04 05:09:58;;;;;;;8.80;5.80;;;7.90;91.30;;;;;;4955086;28;20449;-74
2022/04/04 05:12:23;;;;;;;7.17;5.60;;;7.90;91.30;;;;;;4921979;29;20427;-73
2022/04/04 05:14:49;;;;;;;9.33;6.37;;;7.90;91.30;;;;;;4935000;29;20967;-73
2022/04/04 05:17:18;;;;;;;8.50;5.70;;;7.90;91.30;;;;;;4952775;29;20681;-73
2022/04/04 05:19:47;;;;;;;9.33;6.00;;;7.90;91.30;;;;;;4954004;29;20419;-73
2022/04/04 05:22:14;;;;;;;9.00;5.90;;;7.90;91.30;;;;;;4953636;28;20410;-73
2022/04/04 05:24:40;;;;;;;10.30;6.60;;;7.90;91.30;;;;;;4953617;28;20474;-73
2022/04/04 05:27:10;;;;;;;10.73;6.20;;;7.80;91.20;;;;;;4955478;28;20461;-73
2022/04/04 05:29:36;;;;;;;7.40;5.90;;;7.80;91.30;;;;;;4956438;28;20466;-74
2022/04/04 05:32:02;;;;;;;9.70;6.40;;;7.80;91.30;;;;;;4953937;29;20450;-74
2022/04/04 05:34:29;;;;;;;7.53;6.27;;;7.80;91.30;;;;;;4934046;29;20741;-73
2022/04/04 05:36:57;;;;;;;12.03;6.90;;;7.80;91.30;;;;;;4952680;29;20466;-74
2022/04/04 05:39:24;;;;;;;9.60;6.27;;;7.80;91.30;;;;;;4953213;29;20840;-74
2022/04/04 05:41:52;;;;;;;9.60;6.20;;;7.80;91.30;;;;;;4953473;29;20498;-73
2022/04/04 05:44:26;;;;;;;8.73;6.17;;;7.80;91.30;;;;;;4953671;29;20462;-74
2022/04/04 05:46:55;;;;;;;10.57;6.30;;;7.80;91.30;;;;;;4954372;28;20452;-74
2022/04/04 05:49:23;;;;;;;8.27;6.37;;;7.80;91.30;;;;;;4954282;29;20415;-74
2022/04/04 05:51:52;;;;;;;8.90;6.00;;;7.80;91.30;;;;;;4953933;28;20594;-73
2022/04/04 05:54:20;;;;;;;7.97;5.30;;;7.80;91.30;;;;;;4933855;29;20442;-73
2022/04/04 05:56:48;;;;;;;10.60;6.17;;;7.80;91.30;;;;;;4933903;29;20476;-74
2022/04/04 05:59:14;;;;;;;9.20;6.23;;;7.80;91.30;;;;;;4933912;29;21093;-74
2022/04/04 06:01:43;;;;;;;9.70;6.53;;;7.80;91.30;;;;;;4933919;29;20406;-74
2022/04/04 06:04:11;;;;;;;9.40;5.73;;;7.80;91.30;;;;;;4934502;29;20411;-74
2022/04/04 06:06:37;;;;;;;8.43;5.20;;;7.80;91.30;;;;;;4948639;29;20530;-74
2022/04/04 06:09:03;;;;;;;8.53;5.40;;;7.80;91.40;;;;;;4933589;29;20885;-74
2022/04/04 06:11:29;;;;;;;9.23;5.80;;;7.80;91.40;;;;;;4933763;29;20898;-74
2022/04/04 06:13:56;;;;;;;7.40;5.53;;;7.70;91.30;;;;;;4936287;29;21015;-74
2022/04/04 06:16:23;;;;;;;7.67;5.37;;;7.70;91.40;;;;;;4933431;29;20454;-74
2022/04/04 06:18:50;;;;;;;12.00;6.00;;;7.70;91.40;;;;;;4933438;29;20828;-74
2022/04/04 06:21:18;;;;;;;7.20;5.00;;;7.70;91.40;;;;;;4967125;23;20508;-72
2022/04/04 06:23:46;;;;;;;7.80;5.53;;;7.70;91.40;;;;;;4954559;29;20943;-73
2022/04/04 06:26:13;;;;;;;8.43;5.80;;;7.70;91.40;;;;;;4955500;29;20441;-72
2022/04/04 06:28:42;;;;;;;8.80;5.83;;;7.70;91.40;;;;;;4955411;29;20788;-72
2022/04/04 06:31:10;;;;;;;10.07;5.67;;;7.70;91.40;;;;;;4956533;28;20474;-73
2022/04/04 06:33:43;;;;;;;7.47;6.00;;;7.70;91.40;;;;;;4955219;29;20502;-72
2022/04/04 06:36:11;;;;;;;8.27;5.60;;;7.70;91.40;;;;;;4939133;29;20467;-72
2022/04/04 06:38:37;;;;;;;9.50;6.03;;;7.70;91.40;;;;;;4954008;29;20494;-72
2022/04/04 06:41:03;;;;;;;9.83;5.60;;;7.70;91.40;;;;;;4955604;28;20439;-72
2022/04/04 06:43:31;;;;;;;9.23;5.20;;;7.70;91.40;;;;;;4956129;29;20533;-72
2022/04/04 06:46:02;;;;;;;8.97;5.90;;;7.70;91.50;;;;;;4939785;29;20461;-72
2022/04/04 06:48:30;;;;;;;6.40;5.20;;;7.70;91.50;;;;;;4955047;29;20410;-72
2022/04/04 06:51:01;;;;;;;7.53;5.30;;;7.70;91.50;;;;;;4954897;29;20781;-72
2022/04/04 06:53:27;;;;;;;6.30;5.00;;;7.70;91.60;;;;;;4939147;29;20407;-72
2022/04/04 06:55:55;;;;;;;8.10;5.20;;;7.70;91.60;;;;;;4956019;29;20999;-72
2022/04/04 06:58:21;;;;;;;7.70;5.57;;;7.70;91.60;;;;;;4938722;29;20242;-72
2022/04/04 07:00:48;;;;;;;8.67;5.10;;;7.70;91.70;;;;;;4954493;29;20403;-72
2022/04/04 07:03:14;;;;;;;8.10;5.10;;;7.70;91.70;;;;;;4954958;29;20438;-72
2022/04/04 07:05:40;;;;;;;6.20;5.07;;;7.70;91.70;;;;;;4955703;28;20845;-72
2022/04/04 07:08:10;;;;;;;9.20;6.20;;;7.70;91.80;;;;;;4939017;29;20411;-72
2022/04/04 07:10:36;;;;;;;7.00;5.60;;;7.70;91.80;;;;;;4954454;29;20474;-72
2022/04/04 07:13:06;;;;;;;8.03;5.13;;;7.70;91.90;;;;;;4955662;28;20411;-72
2022/04/04 07:15:37;;;;;;;8.67;5.70;;;7.70;91.90;;;;;;4954411;28;20430;-72
2022/04/04 07:18:06;;;;;;;8.40;5.87;;;7.70;91.90;;;;;;4955104;28;20446;-74
2022/04/04 07:20:38;;;;;;;7.40;5.57;;;7.70;91.90;;;;;;4936333;29;20511;-73
2022/04/04 07:23:05;;;;;;;7.33;5.40;;;7.70;92.00;;;;;;4935249;29;20424;-72
2022/04/04 07:25:36;;;;;;;6.27;4.80;;;7.70;92.00;;;;;;4919768;29;20443;-72
2022/04/04 07:28:02;;;;;;;6.87;5.00;;;7.70;92.00;;;;;;4935186;29;20459;-72
2022/04/04 07:30:28;;;;;;;8.20;5.23;;;7.70;92.00;;;;;;4935261;29;20470;-72
2022/04/04 07:32:54;;;;;;;9.93;5.30;;;7.70;92.10;;;;;;4934967;29;20404;-72
2022/04/04 07:35:23;;;;;;;8.27;5.00;;;7.80;92.20;;;;;;4952279;29;20207;-72
2022/04/04 07:37:50;;;;;;;9.70;5.73;;;7.80;92.30;;;;;;4954967;28;20443;-72
2022/04/04 07:40:20;;;;;;;9.43;6.13;;;7.80;92.30;;;;;;4955113;28;21137;-72
2022/04/04 07:42:47;;;;;;;11.73;5.97;;;7.80;92.40;;;;;;4938279;29;20849;-74
2022/04/04 07:45:15;;;;;;;12.33;5.80;;;7.80;92.40;;;;;;4955202;29;20396;-72
2022/04/04 07:47:46;;;;;;;8.93;6.17;;;7.80;92.50;;;;;;4937964;29;20427;-72
2022/04/04 07:50:14;;;;;;;8.97;5.40;;;7.80;92.60;;;;;;4953571;29;20816;-72
2022/04/04 07:52:40;;;;;;;6.57;5.43;;;7.80;92.70;;;;;;4953776;29;20927;-72
2022/04/04 07:55:12;;;;;;;16.13;6.17;;;7.80;92.70;;;;;;4922619;29;20469;-72
2022/04/04 07:57:42;;;;;;;7.97;5.30;;;7.80;92.80;;;;;;4954702;29;20462;-74
2022/04/04 08:00:14;;;;;;;6.30;5.53;;;7.80;93.20;;;;;;4954703;28;20420;-72
2022/04/04 08:02:43;;;;;;;7.33;5.40;;;7.80;92.80;;;;;;4950498;29;20489;-72
2022/04/04 08:05:09;;;;;;;7.57;6.20;;;7.80;92.90;;;;;;4950261;29;20470;-71
2022/04/04 08:07:40;;;;;;;9.20;5.73;;;7.80;92.90;;;;;;4937630;29;20533;-72
2022/04/04 08:10:07;;;;;;;7.00;5.83;;;7.80;92.90;;;;;;4954656;28;20423;-72
2022/04/04 08:12:36;;;;;;;7.03;5.00;;;7.80;92.90;;;;;;4937520;29;20450;-72
2022/04/04 08:15:02;;;;;;;8.43;5.63;;;7.90;92.90;;;;;;4953107;29;20930;-72
2022/04/04 08:17:28;;;;;;;7.70;5.30;;;7.80;92.90;;;;;;4921701;29;20469;-72
2022/04/04 08:19:56;;;;;;;8.93;5.30;;;7.80;92.90;;;;;;4937239;29;20450;-72
2022/04/04 08:22:24;;;;;;;9.13;6.27;;;7.90;93.00;;;;;;4953367;29;20466;-72
2022/04/04 08:24:50;;;;;;;7.97;5.70;;;7.90;93.00;;;;;;4953437;29;20414;-72
2022/04/04 08:27:19;;;;;;;7.10;5.17;;;7.90;93.00;;;;;;4954430;28;20435;-72
2022/04/04 08:29:47;;;;;;;7.17;5.40;;;7.90;93.00;;;;;;4937334;29;20422;-73
2022/04/04 08:32:17;;;;;;;7.47;6.30;;;7.90;93.10;;;;;;4939509;29;20912;-73
2022/04/04 08:34:43;;;;;;;7.03;6.10;;;7.90;93.00;;;;;;4941521;29;20458;-73
2022/04/04 08:37:13;;;;;;;6.50;5.40;;;7.90;93.10;;;;;;4956941;29;21009;-72
2022/04/04 08:39:39;;;;;;;9.10;5.30;;;7.90;93.10;;;;;;4957241;29;20502;-72
2022/04/04 08:42:07;;;;;;;6.87;5.17;;;7.90;93.10;;;;;;4941186;29;20442;-71
2022/04/04 08:44:36;;;;;;;8.20;5.53;;;7.90;93.10;;;;;;4958146;29;20780;-71
2022/04/04 08:47:06;;;;;;;8.03;5.00;;;7.90;93.10;;;;;;4958089;28;20489;-72
2022/04/04 08:49:36;;;;;;;7.90;5.60;;;7.90;93.00;;;;;;4956561;29;20525;-74
2022/04/04 08:52:03;;;;;;;8.83;5.30;;;7.90;93.00;;;;;;4941109;29;20431;-73
2022/04/04 08:54:29;;;;;;;8.93;5.90;;;7.90;93.00;;;;;;4956614;29;20474;-73
2022/04/04 08:56:55;;;;;;;6.67;5.47;;;7.90;93.00;;;;;;4956265;29;20907;-73
2022/04/04 08:59:21;;;;;;;6.33;5.30;;;8.00;93.00;;;;;;4924873;29;20526;-73
2022/04/04 09:01:49;;;;;;;9.60;5.70;;;8.00;93.00;;;;;;4940731;29;20837;-73
2022/04/04 09:04:17;;;;;;;7.20;5.93;;;8.00;93.00;;;;;;4939095;29;20434;-72
2022/04/04 09:06:51;;;;;;;10.73;5.50;;;8.00;93.00;;;;;;4956518;29;20948;-73
2022/04/04 09:09:37;;;;;;;8.47;6.10;;;8.00;92.90;;;;;;4941023;29;20951;-73
2022/04/04 09:12:09;;;;;;;7.00;5.47;;;8.00;92.90;;;;;;4956128;29;20533;-73
2022/04/04 09:14:44;;;;;;;7.03;4.93;;;8.00;92.90;;;;;;4956164;29;20427;-73
2022/04/04 09:17:14;;;;;;;8.33;5.30;;;8.00;92.90;;;;;;4956275;29;20877;-73
2022/04/04 09:19:43;;;;;;;6.23;5.50;;;8.10;93.00;;;;;;4948614;29;20422;-73
2022/04/04 09:22:14;;;;;;;7.10;5.00;;;8.00;92.90;;;;;;4956406;29;20458;-74
2022/04/04 09:24:51;;;;;;;7.47;5.13;;;8.10;92.90;;;;;;4937986;29;20419;-72
2022/04/04 09:27:25;;;;;;;5.07;4.57;;;8.10;92.90;;;;;;4953713;29;20843;-73
2022/04/04 09:29:58;;;;;;;9.23;6.30;;;8.10;92.90;;;;;;4920986;29;20434;-74
2022/04/04 09:32:41;;;;;;;5.53;4.97;;;8.10;92.80;;;;;;4953504;28;20877;-73
2022/04/04 09:35:18;;;;;;;9.50;5.90;;;8.10;92.70;;;;;;4950670;29;20529;-74
2022/04/04 09:37:48;;;;;;;9.63;5.60;;;8.10;92.70;;;;;;4955072;28;20474;-74
2022/04/04 09:40:16;;;;;;;6.60;5.23;;;8.10;92.60;;;;;;4952157;28;20538;-72
2022/04/04 09:42:56;;;;;;;7.13;6.47;;;8.10;92.60;;;;;;4953218;29;20940;-72
2022/04/04 09:45:28;;;;;;;9.30;6.27;;;8.10;92.60;;;;;;4935899;29;20439;-72
2022/04/04 09:48:08;;;;;;;8.70;6.10;;;8.20;92.70;;;;;;4923125;29;20987;-72
2022/04/04 09:50:45;;;;;;;9.90;6.27;;;8.20;92.70;;;;;;4944196;29;20467;-72
2022/04/04 09:53:24;;;;;;;8.60;5.50;;;8.20;92.90;;;;;;4952187;29;20490;-72
2022/04/04 09:55:55;;;;;;;6.77;5.20;;;8.20;93.10;;;;;;4944778;29;20465;-72
2022/04/04 09:58:25;;;;;;;8.03;5.63;;;8.20;93.30;;;;;;4952246;29;20917;-72
2022/04/04 10:00:54;;;;;;;7.83;6.40;;;8.20;93.70;;;;;;4947690;28;20439;-72
2022/04/04 10:03:21;;;;;;;14.10;6.90;;;8.20;94.40;;;;;;4935378;29;20428;-72
2022/04/04 10:05:55;;;;;;;9.53;6.70;;;8.20;95.00;;;;;;4953975;29;20435;-72
2022/04/04 10:08:27;;;;;;;7.60;6.20;;;8.20;95.30;;;;;;4942589;28;20459;-70
2022/04/04 10:10:54;;;;;;;10.60;6.63;;;8.20;95.50;;;;;;4932804;29;20454;-71
2022/04/04 10:13:21;;;;;;;8.80;6.03;;;8.20;95.60;;;;;;4955257;28;20457;-70
2022/04/04 10:15:51;;;;;;;8.90;6.47;;;8.20;95.70;;;;;;4923044;29;20456;-70
2022/04/04 10:18:18;;;;;;;10.93;6.93;;;8.20;95.80;;;;;;4945549;29;20541;-71
2022/04/04 10:20:52;;;;;;;14.43;7.33;;;8.20;95.90;;;;;;4944939;29;20463;-71
2022/04/04 10:23:20;;;;;;;9.00;6.43;;;8.20;96.00;;;;;;4922509;29;20451;-71
2022/04/04 10:25:50;;;;;;;8.57;6.90;;;8.20;96.10;;;;;;4952250;29;20496;-70
2022/04/04 10:28:32;;;;;;;10.83;6.97;;;8.20;96.20;;;;;;4953264;29;20521;-70
2022/04/04 10:31:11;;;;;;;9.83;7.67;;;8.20;96.20;;;;;;4935097;29;20432;-69
2022/04/04 10:33:39;;;;;;;10.50;6.03;;;8.20;96.20;;;;;;4939166;29;20422;-68
2022/04/04 10:36:07;;;;;;;9.13;6.40;;;8.20;96.30;;;;;;4933818;29;20448;-68
2022/04/04 10:38:51;;;;;;;13.10;6.87;;;8.20;96.60;;;;;;4939230;29;21187;-69
2022/04/04 10:41:20;;;;;;;10.20;6.80;;;8.20;96.70;;;;;;4936773;29;20925;-69
2022/04/04 10:43:51;;;;;;;8.00;6.30;;;8.20;96.90;;;;;;4937448;29;20439;-69
2022/04/04 10:46:21;;;;;;;12.43;7.30;;;8.20;97.10;;;;;;4901739;29;20503;-69
2022/04/04 10:48:51;;;;;;;10.53;7.20;;;8.20;97.30;;;;;;4942655;29;20466;-69
2022/04/04 10:51:19;;;;;;;8.30;6.80;;;8.30;97.50;;;;;;4932693;29;20963;-69
2022/04/04 10:53:57;;;;;;;8.50;6.70;;;8.20;97.60;;;;;;4934636;29;20453;-69
2022/04/04 10:56:24;;;;;;;11.60;6.87;;;8.20;97.80;;;;;;4947497;29;20440;-69
2022/04/04 10:59:16;;;;;;;12.10;7.30;;;8.30;98.00;;;;;;4933552;29;20424;-68
2022/04/04 11:01:50;;;;;;;10.47;7.20;;;8.30;98.20;;;;;;4937469;29;20431;-69
2022/04/04 11:04:36;;;;;;;8.87;7.23;;;8.30;98.40;;;;;;4950977;29;20418;-68
2022/04/04 11:09:57;;;;;;;8.87;6.93;;;8.30;98.60;;;;;;4950344;28;20427;-69
2022/04/04 11:12:25;;;;;;;9.50;6.53;;;8.20;98.80;;;;;;4917528;29;20419;-69
2022/04/04 11:15:02;;;;;;;8.63;6.40;;;8.30;99.10;;;;;;4917049;29;20416;-69
2022/04/04 11:17:36;;;;;;;13.53;7.43;;;8.30;99.30;;;;;;4947892;29;20482;-68
2022/04/04 11:20:10;;;;;;;10.33;7.17;;;8.30;99.50;;;;;;4940010;29;20860;-69
2022/04/04 11:22:51;;;;;;;10.10;6.60;;;8.20;99.70;;;;;;4934084;29;20440;-69
2022/04/04 11:25:19;;;;;;;9.37;6.97;;;8.30;99.90;;;;;;4943996;29;20865;-69
2022/04/04 11:27:48;;;;;;;10.43;7.60;;;8.30;99.90;;;;;;4951390;29;20426;-69
2022/04/04 11:30:17;;;;;;;8.90;7.03;;;8.20;99.90;;;;;;4939541;28;20973;-69
2022/04/04 11:32:49;;;;;;;10.97;7.20;;;8.20;99.90;;;;;;4933112;29;20479;-69
2022/04/04 11:35:18;;;;;;;10.43;7.97;;;8.30;99.90;;;;;;4933364;29;20475;-69
2022/04/04 11:37:49;;;;;;;8.43;7.07;;;8.20;99.90;;;;;;4901730;29;20468;-70
2022/04/04 11:40:29;;;;;;;10.80;7.27;;;8.20;99.90;;;;;;4937094;29;20440;-69
2022/04/04 11:42:58;;;;;;;9.93;7.50;;;8.20;99.90;;;;;;4901283;29;20455;-69
2022/04/04 11:45:32;;;;;;;10.33;7.27;;;8.20;99.90;;;;;;4946524;29;20458;-69
2022/04/04 11:48:06;;;;;;;9.53;7.07;;;8.30;99.90;;;;;;4951087;28;20434;-69
2022/04/04 11:50:37;;;;;;;10.47;6.80;;;8.30;99.90;;;;;;4935984;29;20538;-69
2022/04/04 11:53:12;;;;;;;8.97;6.60;;;8.20;99.90;;;;;;4932291;29;20475;-69
2022/04/04 11:55:41;;;;;;;10.67;7.13;;;8.20;99.90;;;;;;4947158;29;20478;-69
2022/04/04 11:58:12;;;;;;;8.83;7.60;;;8.20;99.90;;;;;;4935253;29;20518;-69
2022/04/04 12:00:44;;;;;;;8.70;7.80;;;8.20;99.90;;;;;;4921095;29;20459;-69
2022/04/04 12:03:15;;;;;;;10.70;7.57;;;8.20;99.90;;;;;;4916109;29;20479;-69
2022/04/04 12:05:45;;;;;;;9.87;8.10;;;8.20;99.90;;;;;;4933277;29;20462;-69
2022/04/04 12:08:14;;;;;;;9.80;6.77;;;8.20;99.90;;;;;;4929146;29;20557;-69
2022/04/04 12:10:42;;;;;;;9.90;7.60;;;8.20;99.90;;;;;;4947118;29;20519;-69
2022/04/04 12:13:22;;;;;;;8.40;6.20;;;8.20;99.90;;;;;;4916596;29;20428;-69
2022/04/04 12:15:54;;;;;;;7.27;6.30;;;8.20;99.90;;;;;;4919916;29;20902;-69
2022/04/04 12:18:29;;;;;;;8.90;7.60;;;8.20;99.90;;;;;;4944105;28;20475;-69
2022/04/04 12:21:06;;;;;;;10.57;7.30;;;8.20;99.90;;;;;;4938371;29;20419;-69
2022/04/04 12:26:27;;;;;;;10.57;8.10;;;8.20;99.90;;;;;;4939269;28;20548;-69
2022/04/04 12:28:56;;;;;;;10.40;7.10;;;8.20;99.90;;;;;;4915682;29;20396;-69
2022/04/04 12:31:26;;;;;;;8.00;6.70;;;8.20;99.90;;;;;;4933569;29;20446;-69
2022/04/04 12:34:06;;;;;;;11.93;6.60;;;8.20;99.90;;;;;;4915934;29;20977;-69
2022/04/04 12:36:40;;;;;;;10.43;6.97;;;8.20;99.90;;;;;;4942290;29;20487;-69
2022/04/04 12:39:15;;;;;;;8.70;7.63;;;8.20;99.90;;;;;;4942396;29;20855;-69
2022/04/04 12:41:44;;;;;;;8.27;6.73;;;8.20;99.90;;;;;;4935639;28;20428;-70
2022/04/04 12:44:14;;;;;;;7.70;6.90;;;8.20;99.90;;;;;;4934714;29;20526;-69
2022/04/04 12:46:42;;;;;;;7.57;6.80;;;8.20;99.90;;;;;;4951624;28;20474;-69
2022/04/04 12:49:26;;;;;;;11.40;7.70;;;8.20;99.90;;;;;;4931645;29;20503;-69
2022/04/04 12:51:55;;;;;;;7.00;6.30;;;8.20;99.90;;;;;;4932956;29;20455;-69
2022/04/04 12:54:30;;;;;;;7.10;6.37;;;8.20;99.90;;;;;;4951276;28;20396;-69
2022/04/04 12:57:00;;;;;;;6.87;5.93;;;8.20;99.90;;;;;;4933746;28;20482;-69
2022/04/04 12:59:29;;;;;;;9.07;6.50;;;8.20;99.90;;;;;;4931702;29;20444;-69
2022/04/04 13:02:11;;;;;;;8.40;6.83;;;8.20;99.90;;;;;;4917307;29;20447;-69
2022/04/04 13:04:39;;;;;;;8.00;6.37;;;8.20;99.90;;;;;;4939253;29;20415;-69
2022/04/04 13:07:18;;;;;;;7.73;6.33;;;8.20;99.90;;;;;;4950292;28;20790;-69
2022/04/04 13:09:53;;;;;;;8.00;6.57;;;8.20;99.90;;;;;;4930125;29;20443;-69
2022/04/04 13:12:26;;;;;;;8.10;7.30;;;8.20;99.90;;;;;;4931356;29;20412;-70
2022/04/04 13:14:52;;;;;;;8.23;6.60;;;8.20;99.90;;;;;;4923904;29;20416;-69
2022/04/04 13:17:35;;;;;;;8.93;6.57;;;8.20;99.90;;;;;;4936911;29;20467;-68